createdAt,value
2023-03-11T00:01:01.100Z,2.50
2023-03-11T00:03:31.345Z,1.90
2023-03-11T00:06:04.356Z,1.80
2023-03-11T00:08:34.838Z,1.70
2023-03-11T00:11:05.565Z,1.50
2023-03-11T00:13:36.930Z,1.70
2023-03-11T00:16:08.408Z,1.90
2023-03-11T00:18:38.568Z,1.90
2023-03-11T00:21:17.133Z,1.50
2023-03-11T00:23:47.946Z,1.70
2023-03-11T00:26:18.277Z,1.50
2023-03-11T00:28:49.156Z,1.70
2023-03-11T00:31:19.876Z,0.80
2023-03-11T00:33:50.152Z,2.00
2023-03-11T00:36:24.620Z,1.80
2023-03-11T00:38:54.886Z,1.60
2023-03-11T00:41:25.198Z,1.90
2023-03-11T00:43:55.639Z,1.40
2023-03-11T00:46:26.812Z,1.90
2023-03-11T00:48:57.168Z,1.90
2023-03-11T00:51:28.080Z,2.00
2023-03-11T00:53:59.714Z,1.50
2023-03-11T00:56:29.946Z,1.70
2023-03-11T00:59:00.361Z,1.70
2023-03-11T01:01:30.632Z,2.00
2023-03-11T01:04:03.717Z,1.90
2023-03-11T01:06:44.796Z,1.40
2023-03-11T01:09:15.591Z,1.90
2023-03-11T01:11:46.879Z,1.50
2023-03-11T01:14:17.136Z,1.30
2023-03-11T01:16:47.933Z,1.60
2023-03-11T01:19:19.421Z,2.10
2023-03-11T01:21:50.714Z,1.70
2023-03-11T01:24:20.973Z,1.40
2023-03-11T01:26:53.204Z,1.90
2023-03-11T01:29:23.355Z,1.70
2023-03-11T01:31:53.545Z,1.60
2023-03-11T01:34:23.768Z,1.50
2023-03-11T01:36:54.589Z,2.10
2023-03-11T01:39:25.168Z,2.10
2023-03-11T01:41:56.175Z,1.40
2023-03-11T01:44:26.705Z,1.50
2023-03-11T01:47:24.296Z,1.50
2023-03-11T01:49:55.040Z,1.50
2023-03-11T01:52:25.729Z,1.60
2023-03-11T01:54:56.180Z,2.20
2023-03-11T01:57:26.878Z,2.20
2023-03-11T01:59:59.116Z,2.00
2023-03-11T02:02:32.993Z,1.90
2023-03-11T02:05:04.811Z,2.00
2023-03-11T02:07:35.513Z,1.80
2023-03-11T02:10:07.386Z,1.90
2023-03-11T02:12:38.899Z,2.10
2023-03-11T02:15:11.832Z,2.10
2023-03-11T02:17:43.513Z,1.90
2023-03-11T02:20:28.889Z,1.90
2023-03-11T02:22:59.434Z,1.60
2023-03-11T02:25:35.734Z,1.50
2023-03-11T02:28:08.252Z,2.70
2023-03-11T02:30:39.828Z,1.70
2023-03-11T02:33:10.521Z,1.90
2023-03-11T02:35:40.828Z,2.10
2023-03-11T02:38:11.027Z,1.40
2023-03-11T02:40:48.872Z,1.80
2023-03-11T02:43:26.172Z,1.90
2023-03-11T02:45:56.813Z,2.00
2023-03-11T02:48:27.663Z,1.50
2023-03-11T02:50:59.142Z,1.90
2023-03-11T02:53:31.748Z,1.70
2023-03-11T02:56:02.016Z,1.20
2023-03-11T02:58:32.439Z,2.20
2023-03-11T03:01:03.339Z,1.80
2023-03-11T03:03:33.666Z,1.40
2023-03-11T03:06:04.336Z,1.40
2023-03-11T03:08:34.674Z,1.80
2023-03-11T03:11:05.515Z,1.80
2023-03-11T03:13:36.339Z,1.60
2023-03-11T03:16:07.488Z,2.00
2023-03-11T03:18:37.796Z,1.70
2023-03-11T03:21:08.127Z,1.80
2023-03-11T03:23:38.382Z,1.90
2023-03-11T03:26:08.588Z,2.10
2023-03-11T03:28:40.409Z,2.00
2023-03-11T03:31:12.152Z,1.80
2023-03-11T03:33:43.409Z,1.70
2023-03-11T03:36:15.699Z,1.90
2023-03-11T03:39:01.551Z,2.50
2023-03-11T03:41:34.810Z,2.20
2023-03-11T03:44:05.828Z,2.00
2023-03-11T03:46:38.466Z,3.10
2023-03-11T03:49:09.131Z,2.70
2023-03-11T03:51:39.463Z,2.20
2023-03-11T03:54:13.798Z,2.30
2023-03-11T03:56:43.995Z,3.40
2023-03-11T03:59:15.190Z,2.00
2023-03-11T04:01:49.640Z,2.20
2023-03-11T04:04:20.422Z,2.40
2023-03-11T04:06:51.276Z,2.40
2023-03-11T04:09:22.002Z,3.40
2023-03-11T04:11:53.098Z,2.90
2023-03-11T04:14:23.920Z,2.60
2023-03-11T04:16:57.737Z,2.50
2023-03-11T04:19:28.719Z,2.10
2023-03-11T04:21:59.550Z,2.40
2023-03-11T04:24:30.227Z,2.30
2023-03-11T04:27:00.410Z,2.70
2023-03-11T04:29:31.503Z,2.90
2023-03-11T04:32:01.821Z,3.10
2023-03-11T04:34:32.663Z,4.80
2023-03-11T04:37:03.198Z,3.70
2023-03-11T04:39:35.687Z,2.40
2023-03-11T04:42:06.540Z,2.60
2023-03-11T04:44:38.802Z,2.60
2023-03-11T04:47:09.270Z,2.70
2023-03-11T04:49:40.214Z,1.90
2023-03-11T04:52:10.709Z,2.60
2023-03-11T04:54:41.472Z,2.30
2023-03-11T04:57:12.204Z,3.00
2023-03-11T05:02:14.387Z,3.50
2023-03-11T05:04:50.222Z,2.80
2023-03-11T05:07:20.621Z,2.60
2023-03-11T05:09:51.197Z,2.80
2023-03-11T05:12:21.656Z,3.10
2023-03-11T05:14:54.252Z,3.20
2023-03-11T05:17:25.039Z,2.70
2023-03-11T05:19:56.114Z,2.60
2023-03-11T05:22:29.311Z,3.40
2023-03-11T05:24:59.578Z,2.80
2023-03-11T05:27:30.440Z,2.20
2023-03-11T05:30:01.214Z,2.30
2023-03-11T05:32:32.162Z,2.40
2023-03-11T05:35:02.715Z,2.20
2023-03-11T05:37:35.275Z,2.20
2023-03-11T05:40:08.177Z,2.50
2023-03-11T05:42:41.267Z,1.50
2023-03-11T05:45:12.939Z,3.30
2023-03-11T05:47:43.756Z,3.70
2023-03-11T05:50:15.622Z,3.10
2023-03-11T05:52:46.712Z,2.40
2023-03-11T05:55:17.217Z,3.00
2023-03-11T05:57:48.431Z,2.60
2023-03-11T06:00:22.484Z,2.50
2023-03-11T06:02:52.945Z,2.70
2023-03-11T06:05:23.760Z,2.40
2023-03-11T06:07:54.348Z,3.20
2023-03-11T06:10:25.944Z,4.20
2023-03-11T06:12:56.388Z,3.70
2023-03-11T06:15:30.217Z,3.00
2023-03-11T06:18:00.715Z,2.40
2023-03-11T06:20:31.452Z,3.30
2023-03-11T06:23:01.937Z,3.50
2023-03-11T06:25:32.287Z,2.80
2023-03-11T06:28:03.402Z,2.10
2023-03-11T06:30:34.170Z,2.60
2023-03-11T06:33:11.324Z,2.70
2023-03-11T06:35:41.631Z,3.10
2023-03-11T06:38:12.359Z,3.20
2023-03-11T06:40:42.725Z,2.90
2023-03-11T06:43:12.979Z,2.80
2023-03-11T06:45:43.678Z,2.40
2023-03-11T06:48:14.083Z,2.10
2023-03-11T06:50:44.516Z,2.10
2023-03-11T06:53:14.837Z,2.70
2023-03-11T06:55:45.132Z,2.50
2023-03-11T06:58:15.408Z,1.80
2023-03-11T07:00:46.327Z,2.80
2023-03-11T07:03:16.790Z,3.30
2023-03-11T07:05:48.133Z,3.30
2023-03-11T07:08:18.376Z,3.00
2023-03-11T07:10:49.550Z,3.10
2023-03-11T07:13:19.940Z,2.70
2023-03-11T07:15:50.317Z,2.70
2023-03-11T07:18:21.105Z,2.50
2023-03-11T07:20:51.496Z,3.50
2023-03-11T07:23:21.801Z,2.60
2023-03-11T07:25:52.902Z,3.10
2023-03-11T07:28:23.398Z,2.60
2023-03-11T07:30:55.244Z,2.50
2023-03-11T07:33:25.749Z,3.60
2023-03-11T07:35:56.012Z,3.00
2023-03-11T07:38:26.606Z,3.20
2023-03-11T07:41:01.863Z,2.70
2023-03-11T07:43:32.372Z,2.20
2023-03-11T07:46:08.720Z,4.80
2023-03-11T07:48:39.519Z,3.60
2023-03-11T07:51:11.341Z,3.40
2023-03-11T07:53:41.688Z,3.00
2023-03-11T07:56:13.472Z,3.10
2023-03-11T07:58:45.702Z,3.20
2023-03-11T08:01:18.186Z,3.40
2023-03-11T08:03:49.869Z,2.80
2023-03-11T08:06:21.509Z,2.60
2023-03-11T08:08:52.357Z,2.60
2023-03-11T08:11:22.562Z,2.50
2023-03-11T08:13:54.575Z,3.00
2023-03-11T08:16:24.827Z,2.50
2023-03-11T08:18:55.737Z,2.80
2023-03-11T08:21:28.952Z,2.60
2023-03-11T08:24:01.518Z,2.30
2023-03-11T08:26:32.634Z,2.30
2023-03-11T08:29:03.017Z,2.30
2023-03-11T08:31:34.952Z,2.10
2023-03-11T08:34:07.930Z,1.50
2023-03-11T08:39:06.987Z,2.50
2023-03-11T08:41:37.299Z,2.10
2023-03-11T08:44:07.787Z,2.30
2023-03-11T08:46:39.404Z,2.90
2023-03-11T08:49:09.833Z,2.40
2023-03-11T08:51:40.312Z,2.60
2023-03-11T08:54:10.508Z,2.40
2023-03-11T08:56:40.684Z,4.10
2023-03-11T08:59:10.898Z,2.30
2023-03-11T09:01:42.313Z,2.80
2023-03-11T09:04:12.630Z,2.40
2023-03-11T09:06:45.757Z,2.60
2023-03-11T09:09:16.996Z,1.90
2023-03-11T09:11:47.140Z,2.30
2023-03-11T09:14:17.744Z,2.10
2023-03-11T09:16:47.891Z,2.30
2023-03-11T09:19:18.009Z,2.70
2023-03-11T09:21:48.500Z,2.40
2023-03-11T09:24:18.613Z,2.30
2023-03-11T09:26:48.736Z,1.90
2023-03-11T09:29:18.879Z,1.80
2023-03-11T09:31:49.113Z,1.90
2023-03-11T09:34:19.455Z,2.30
2023-03-11T09:36:50.308Z,1.60
2023-03-11T09:39:20.483Z,1.90
2023-03-11T09:41:58.344Z,2.50
2023-03-11T09:44:34.446Z,2.40
2023-03-11T09:47:13.413Z,2.20
2023-03-11T09:49:53.814Z,1.60
2023-03-11T09:52:28.680Z,1.40
2023-03-11T09:54:59.094Z,1.30
2023-03-11T09:57:31.739Z,1.20
2023-03-11T10:00:02.223Z,1.20
2023-03-11T10:02:42.537Z,2.80
2023-03-11T10:05:16.694Z,3.10
2023-03-11T10:07:50.781Z,1.60
2023-03-11T10:10:21.091Z,1.40
2023-03-11T10:12:56.317Z,1.50
2023-03-11T10:15:32.778Z,1.70
2023-03-11T10:18:20.052Z,1.60
2023-03-11T10:20:55.753Z,1.50
2023-03-11T10:23:30.679Z,1.40
2023-03-11T10:26:06.218Z,1.60
2023-03-11T10:28:39.806Z,1.50
2023-03-11T10:31:20.214Z,1.80
2023-03-11T10:33:53.848Z,1.70
2023-03-11T10:36:27.555Z,1.40
2023-03-11T10:38:58.274Z,1.70
2023-03-11T10:41:33.343Z,1.50
2023-03-11T10:44:07.035Z,1.80
2023-03-11T10:46:37.308Z,1.80
2023-03-11T10:49:15.932Z,1.60
2023-03-11T10:51:48.849Z,1.90
2023-03-11T10:54:28.512Z,1.60
2023-03-11T10:57:00.044Z,1.80
2023-03-11T10:59:33.637Z,1.50
2023-03-11T11:02:17.044Z,1.60
2023-03-11T11:04:47.409Z,1.20
2023-03-11T11:07:29.142Z,1.10
2023-03-11T11:10:17.519Z,1.40
2023-03-11T11:13:01.965Z,1.50
2023-03-11T11:15:34.582Z,1.40
2023-03-11T11:18:06.480Z,1.40
2023-03-11T11:20:36.854Z,1.20
2023-03-11T11:23:07.031Z,1.30
2023-03-11T11:25:39.077Z,1.30
2023-03-11T11:28:18.204Z,1.00
2023-03-11T11:30:57.292Z,1.30
2023-03-11T11:33:30.327Z,1.50
2023-03-11T11:36:02.633Z,1.30
2023-03-11T11:38:34.670Z,1.60
2023-03-11T11:41:06.559Z,1.20
2023-03-11T11:43:45.372Z,1.10
2023-03-11T11:46:22.421Z,1.20
2023-03-11T11:48:59.304Z,1.20
2023-03-11T11:51:33.162Z,1.70
2023-03-11T11:54:15.273Z,1.60
2023-03-11T11:56:45.978Z,1.30
2023-03-11T11:59:21.629Z,1.30
2023-03-11T12:02:01.113Z,1.60
2023-03-11T12:04:52.664Z,1.50
2023-03-11T12:07:33.878Z,1.50
2023-03-11T12:10:22.866Z,1.30
2023-03-11T12:13:17.496Z,1.50
2023-03-11T12:15:53.552Z,1.80
2023-03-11T12:18:26.754Z,1.40
2023-03-11T12:20:57.639Z,2.20
2023-03-11T12:23:40.925Z,1.40
2023-03-11T12:26:17.698Z,1.80
2023-03-11T12:28:51.991Z,1.80
2023-03-11T12:31:22.901Z,1.50
2023-03-11T12:33:59.132Z,1.30
2023-03-11T12:36:32.295Z,3.20
2023-03-11T12:39:05.567Z,1.40
2023-03-11T12:41:42.846Z,1.40
2023-03-11T12:44:25.871Z,1.50
2023-03-11T12:49:43.191Z,1.60
2023-03-11T12:52:30.603Z,1.10
2023-03-11T12:55:36.914Z,1.50
2023-03-11T12:58:28.316Z,1.10
2023-03-11T13:01:08.675Z,1.40
2023-03-11T13:03:46.337Z,1.70
2023-03-11T13:06:35.138Z,1.30
2023-03-11T13:09:05.460Z,1.60
2023-03-11T13:11:46.827Z,1.20
2023-03-11T13:14:31.288Z,1.40
2023-03-11T13:17:27.487Z,1.40
2023-03-11T13:19:58.561Z,1.20
2023-03-11T13:22:45.963Z,1.30
2023-03-11T13:25:32.794Z,1.20
2023-03-11T13:28:28.834Z,1.10
2023-03-11T13:31:05.817Z,1.40
2023-03-11T13:33:43.954Z,1.30
2023-03-11T13:36:23.323Z,2.00
2023-03-11T13:39:08.666Z,1.10
2023-03-11T13:41:41.716Z,1.20
2023-03-11T13:46:49.981Z,1.10
2023-03-11T13:49:27.879Z,2.60
2023-03-11T13:51:59.401Z,1.30
2023-03-11T13:54:48.097Z,1.30
2023-03-11T13:57:25.847Z,1.80
2023-03-11T13:59:57.087Z,3.70
2023-03-11T14:02:28.348Z,2.10
2023-03-11T14:05:04.700Z,3.20
2023-03-11T14:07:38.615Z,1.20
2023-03-11T14:10:31.638Z,1.30
2023-03-11T14:13:20.833Z,3.30
2023-03-11T14:15:54.957Z,1.80
2023-03-11T14:18:35.055Z,2.10
2023-03-11T14:21:07.120Z,1.80
2023-03-11T14:23:43.437Z,2.00
2023-03-11T14:26:16.455Z,1.40
2023-03-11T14:31:30.697Z,2.20
2023-03-11T14:34:06.638Z,3.10
2023-03-11T14:36:44.274Z,2.60
2023-03-11T14:39:29.189Z,2.20
2023-03-11T14:42:04.794Z,1.80
2023-03-11T14:44:38.230Z,1.50
2023-03-11T14:47:12.405Z,1.20
2023-03-11T14:49:42.741Z,2.20
2023-03-11T14:52:18.211Z,1.90
2023-03-11T14:54:49.477Z,1.90
2023-03-11T14:57:26.572Z,2.00
2023-03-11T14:59:58.481Z,1.70
2023-03-11T15:02:41.806Z,1.70
2023-03-11T15:05:16.799Z,1.50
2023-03-11T15:07:47.423Z,1.50
2023-03-11T15:10:18.074Z,1.30
2023-03-11T15:12:49.689Z,2.20
2023-03-11T15:15:28.565Z,1.30
2023-03-11T15:18:00.454Z,1.10
2023-03-11T15:20:33.642Z,1.30
2023-03-11T15:23:05.380Z,1.40
2023-03-11T15:25:37.609Z,1.30
2023-03-11T15:28:24.220Z,1.40
2023-03-11T15:31:17.874Z,1.50
2023-03-11T15:33:48.425Z,1.60
2023-03-11T15:36:35.156Z,1.50
2023-03-11T15:39:19.618Z,1.40
2023-03-11T15:42:00.981Z,1.40
2023-03-11T15:44:33.704Z,1.70
2023-03-11T15:47:06.287Z,1.00
2023-03-11T15:49:38.655Z,1.60
2023-03-11T15:52:12.683Z,1.30
2023-03-11T15:54:54.743Z,2.20
2023-03-11T15:57:28.740Z,1.50
2023-03-11T16:00:01.682Z,1.20
2023-03-11T16:02:37.940Z,1.10
2023-03-11T16:05:15.753Z,2.00
2023-03-11T16:07:47.736Z,1.30
2023-03-11T16:10:24.753Z,1.20
2023-03-11T16:12:56.815Z,3.10
2023-03-11T16:15:31.257Z,2.20
2023-03-11T16:18:03.740Z,1.20
2023-03-11T16:20:38.719Z,1.60
2023-03-11T16:23:21.131Z,4.20
2023-03-11T16:25:55.777Z,2.10
2023-03-11T16:28:28.244Z,1.40
2023-03-11T16:31:03.931Z,1.30
2023-03-11T16:33:38.697Z,1.30
2023-03-11T16:36:11.759Z,1.50
2023-03-11T16:38:46.847Z,2.90
2023-03-11T16:41:20.137Z,1.40
2023-03-11T16:50:14.986Z,1.70
2023-03-11T16:52:45.434Z,2.10
2023-03-11T16:55:19.351Z,1.60
2023-03-11T16:57:49.965Z,1.80
2023-03-11T17:00:21.688Z,1.70
2023-03-11T17:02:52.414Z,1.60
2023-03-11T17:05:22.915Z,1.20
2023-03-11T17:08:00.707Z,1.30
2023-03-11T17:10:31.242Z,1.70
2023-03-11T17:13:01.507Z,1.80
2023-03-11T17:15:32.030Z,2.60
2023-03-11T17:18:02.342Z,1.90
2023-03-11T17:20:32.683Z,1.70
2023-03-11T17:23:03.558Z,2.40
2023-03-11T17:25:33.774Z,1.70
2023-03-11T17:28:04.531Z,1.40
2023-03-11T17:30:37.186Z,1.30
2023-03-11T17:35:36.542Z,1.40
2023-03-11T17:38:06.739Z,1.30
2023-03-11T17:40:37.032Z,1.20
2023-03-11T17:43:07.570Z,1.20
2023-03-11T17:45:40.963Z,1.40
2023-03-11T17:48:11.682Z,1.30
2023-03-11T17:50:42.074Z,1.40
2023-03-11T17:53:18.078Z,1.10
2023-03-11T17:55:54.394Z,1.20
2023-03-11T17:58:24.947Z,1.20
2023-03-11T18:00:55.548Z,1.20
2023-03-11T18:03:26.365Z,1.20
2023-03-11T18:06:01.671Z,1.20
2023-03-11T18:08:32.752Z,1.30
2023-03-11T18:11:04.938Z,1.40
2023-03-11T18:13:35.837Z,1.00
2023-03-11T18:16:07.695Z,1.40
2023-03-11T18:18:38.783Z,2.90
2023-03-11T18:21:11.400Z,2.70
2023-03-11T18:23:41.906Z,3.90
2023-03-11T18:26:13.489Z,5.10
2023-03-11T18:28:44.056Z,2.80
2023-03-11T18:31:15.468Z,2.20
2023-03-11T18:33:51.604Z,1.80
2023-03-11T18:46:06.808Z,1.70
2023-03-11T18:48:39.356Z,1.50
2023-03-11T18:51:09.986Z,1.10
2023-03-11T18:53:42.739Z,1.20
2023-03-11T18:56:16.315Z,1.30
2023-03-11T19:01:18.630Z,1.20
2023-03-11T19:03:52.347Z,1.20
2023-03-11T19:06:23.386Z,1.30
2023-03-11T19:08:53.736Z,1.30
2023-03-11T19:11:25.118Z,1.20
2023-03-11T19:13:55.946Z,1.60
2023-03-11T19:16:43.012Z,1.20
2023-03-11T19:19:13.700Z,1.30
2023-03-11T19:21:44.387Z,1.70
2023-03-11T19:24:15.006Z,1.40
2023-03-11T19:26:46.333Z,1.20
2023-03-11T19:29:17.882Z,1.50
2023-03-11T19:31:48.115Z,1.50
2023-03-11T19:34:18.468Z,2.10
2023-03-11T19:36:48.944Z,1.50
2023-03-11T19:39:19.245Z,1.70
2023-03-11T19:41:49.646Z,2.00
2023-03-11T19:44:20.147Z,1.30
2023-03-11T19:46:50.583Z,1.10
2023-03-11T19:49:24.351Z,1.50
2023-03-11T19:51:56.082Z,1.50
2023-03-11T19:54:26.392Z,1.20
2023-03-11T19:56:57.124Z,1.50
2023-03-11T19:59:27.490Z,1.40
2023-03-11T20:01:58.297Z,1.20
2023-03-11T20:04:28.724Z,1.30
2023-03-11T20:06:59.755Z,1.50
2023-03-11T20:09:30.071Z,2.00
2023-03-11T20:12:01.233Z,2.50
2023-03-11T20:14:31.463Z,2.60
2023-03-11T20:17:02.506Z,2.90
2023-03-11T20:19:32.771Z,2.50
2023-03-11T20:22:03.389Z,1.90
2023-03-11T20:24:34.178Z,1.60
2023-03-11T20:27:04.994Z,1.30
2023-03-11T20:29:35.285Z,1.30
2023-03-11T20:32:06.271Z,1.40
2023-03-11T20:34:37.012Z,1.50
2023-03-11T20:37:07.256Z,1.80
2023-03-11T20:39:38.204Z,1.70
2023-03-11T20:42:08.582Z,1.80
2023-03-11T20:44:39.172Z,1.50
2023-03-11T20:47:10.058Z,1.30
2023-03-11T20:49:40.529Z,1.60
2023-03-11T20:52:10.937Z,1.60
2023-03-11T20:54:41.338Z,1.10
2023-03-11T20:57:11.864Z,1.40
2023-03-11T20:59:42.145Z,1.40
2023-03-11T21:02:13.478Z,1.80
2023-03-11T21:04:44.136Z,2.50
2023-03-11T21:07:14.419Z,2.40
2023-03-11T21:09:44.625Z,1.40
2023-03-11T21:12:15.183Z,1.70
2023-03-11T21:14:45.434Z,1.60
2023-03-11T21:17:16.617Z,1.60
2023-03-11T21:19:47.105Z,1.60
2023-03-11T21:22:17.496Z,1.90
2023-03-11T21:24:48.857Z,2.00
2023-03-11T21:27:20.892Z,1.90
2023-03-11T21:29:51.268Z,2.20
2023-03-11T21:32:21.857Z,1.70
2023-03-11T21:34:52.123Z,2.00
2023-03-11T21:37:22.338Z,2.10
2023-03-11T21:39:52.751Z,1.80
2023-03-11T21:42:23.464Z,1.70
2023-03-11T21:44:54.003Z,2.00
2023-03-11T21:47:24.722Z,2.10
2023-03-11T21:49:55.059Z,1.70
2023-03-11T21:52:25.471Z,1.90
2023-03-11T21:54:56.522Z,1.90
2023-03-11T21:57:26.966Z,1.50
2023-03-11T21:59:57.420Z,2.00
2023-03-11T22:02:27.726Z,2.00
2023-03-11T22:04:58.141Z,2.50
2023-03-11T22:07:28.758Z,2.80
2023-03-11T22:09:59.448Z,3.20
2023-03-11T22:12:29.880Z,2.30
2023-03-11T22:15:00.328Z,1.80
2023-03-11T22:17:31.064Z,1.70
2023-03-11T22:20:01.600Z,1.90
2023-03-11T22:22:31.893Z,1.80
2023-03-11T22:25:02.835Z,1.70
2023-03-11T22:27:33.425Z,1.60
2023-03-11T22:30:03.648Z,1.40
2023-03-11T22:32:34.142Z,2.20
2023-03-11T22:35:04.523Z,1.40
2023-03-11T22:37:34.878Z,1.80
2023-03-11T22:40:08.221Z,2.80
2023-03-11T22:42:39.262Z,2.10
2023-03-11T22:45:11.819Z,2.70
2023-03-11T22:47:42.777Z,3.10
2023-03-11T22:50:13.747Z,3.00
2023-03-11T22:52:44.095Z,2.40
2023-03-11T22:55:14.421Z,2.70
2023-03-11T22:57:44.897Z,2.40
2023-03-11T23:00:19.019Z,1.80
2023-03-11T23:02:51.478Z,2.00
2023-03-11T23:05:21.771Z,2.00
2023-03-11T23:07:52.339Z,1.80
2023-03-11T23:10:22.906Z,1.80
2023-03-11T23:12:53.385Z,2.00
2023-03-11T23:15:23.805Z,2.60
2023-03-11T23:17:54.174Z,1.60
2023-03-11T23:20:24.567Z,1.90
2023-03-11T23:22:55.467Z,1.40
2023-03-11T23:25:26.062Z,1.80
2023-03-11T23:27:56.305Z,1.90
2023-03-11T23:30:27.037Z,2.20
2023-03-11T23:32:57.543Z,3.00
2023-03-11T23:35:27.859Z,2.80
2023-03-11T23:37:58.055Z,1.90
2023-03-11T23:40:28.357Z,1.90
2023-03-11T23:42:58.576Z,2.10
2023-03-11T23:45:29.483Z,1.90
2023-03-11T23:47:59.722Z,2.10
2023-03-11T23:50:29.962Z,2.00
2023-03-11T23:53:00.188Z,2.50
2023-03-11T23:55:30.380Z,2.10
2023-03-11T23:58:00.681Z,2.20
